Herne Bay, United Kingdom
Current Conditions -  °F | °C
As of 6:20 PM on Saturday 27 Dec 2014 (Local Time) from EGMC Reporting Station
Few Clouds Few Clouds  
Wind Chill: -2°   Ceiling: Unl
Heat Index:   Visibility: 6mi
Dew Point:   Wind: 12mph
Humidity: 87%   Direction: 330°NNW
Pressure: 29.77"   Gusts: NA
Location:  51.37°N, 1.13°E
Report Text: EGMC 271820Z 33010KT 9999 FEW008 02/M00 Q1008
Loading
Personal Weather Stations






























Interactive Weather Map New forecast layout! Learn more

10-Day Weather Forecast

Advertisements
Track Severe Weather on mobile